Time;durP1;ratioP1;P1;durP2;ratioP2;P2;SDS_P1;SDS_P2;PMS_P1;PMS_P2;Temp;Humidity;BMP_temperature;BMP_pressure;BME280_temperature;BME280_humidity;BME280_pressure;Samples;Min_cycle;Max_cycle;Signal;HPM_P1;HPM_P2
2023/02/25 00:02:15;;;;;;;11.50;3.17;;;6.00;99.90;;;;;;5047596;28;20202;-79
2023/02/25 00:04:43;;;;;;;21.83;3.20;;;6.00;99.90;;;;;;5044460;28;20297;-82
2023/02/25 00:07:10;;;;;;;18.70;3.27;;;6.00;99.90;;;;;;5025712;28;20770;-80
2023/02/25 00:09:36;;;;;;;11.73;3.80;;;6.00;99.90;;;;;;5026111;28;20705;-79
2023/02/25 00:12:05;;;;;;;14.33;3.13;;;6.00;99.90;;;;;;5025135;28;20289;-81
2023/02/25 00:14:32;;;;;;;16.60;4.30;;;6.00;99.90;;;;;;5024098;28;20986;-80
2023/02/25 00:17:00;;;;;;;23.63;4.07;;;6.10;99.90;;;;;;5024722;28;20226;-79
2023/02/25 00:19:28;;;;;;;18.37;3.23;;;6.10;99.90;;;;;;5024781;28;20206;-79
2023/02/25 00:21:55;;;;;;;17.90;3.40;;;6.10;99.90;;;;;;5025062;28;20289;-78
2023/02/25 00:24:22;;;;;;;17.70;3.87;;;6.10;99.90;;;;;;5024986;28;20203;-79
2023/02/25 00:26:49;;;;;;;16.23;4.40;;;6.00;99.90;;;;;;5024342;28;20209;-80
2023/02/25 00:29:17;;;;;;;23.07;4.77;;;6.00;99.90;;;;;;5024080;28;20789;-79
2023/02/25 00:31:45;;;;;;;22.53;3.27;;;5.90;99.90;;;;;;5025273;28;20202;-78
2023/02/25 00:34:12;;;;;;;12.60;3.10;;;5.90;99.90;;;;;;5024109;28;20847;-79
2023/02/25 00:36:39;;;;;;;12.67;3.00;;;5.80;99.90;;;;;;5024547;28;20570;-78
2023/02/25 00:39:07;;;;;;;21.93;3.17;;;5.80;99.90;;;;;;5024304;28;20222;-80
2023/02/25 00:41:35;;;;;;;23.80;3.70;;;5.80;99.90;;;;;;5041059;28;20233;-80
2023/02/25 00:44:02;;;;;;;18.90;3.70;;;5.80;99.90;;;;;;5044507;28;20264;-79
2023/02/25 00:46:31;;;;;;;14.03;2.93;;;5.90;99.90;;;;;;5043349;28;20223;-80
2023/02/25 00:48:59;;;;;;;26.23;4.83;;;5.90;99.90;;;;;;5041576;28;20225;-79
2023/02/25 00:51:28;;;;;;;10.37;4.07;;;6.00;99.90;;;;;;5023141;28;20202;-78
2023/02/25 00:53:56;;;;;;;24.23;4.33;;;5.90;99.90;;;;;;5023446;28;20210;-80
2023/02/25 00:56:24;;;;;;;13.83;3.10;;;5.90;99.90;;;;;;5025778;28;20234;-81
2023/02/25 00:58:52;;;;;;;20.23;4.37;;;5.90;99.90;;;;;;5025725;28;20256;-80
2023/02/25 01:01:21;;;;;;;17.37;4.37;;;5.90;99.90;;;;;;5033552;28;20317;-78
2023/02/25 01:03:52;;;;;;;23.53;4.50;;;5.90;99.90;;;;;;5044366;28;20206;-78
2023/02/25 01:06:19;;;;;;;18.10;3.93;;;6.00;99.90;;;;;;5045549;28;20198;-80
2023/02/25 01:08:46;;;;;;;18.60;3.57;;;6.00;99.90;;;;;;5030704;28;20235;-80
2023/02/25 01:11:15;;;;;;;23.67;4.67;;;5.90;99.90;;;;;;5024560;28;20202;-79
2023/02/25 01:13:43;;;;;;;18.83;4.23;;;5.90;99.90;;;;;;5025102;28;20209;-80
2023/02/25 01:16:13;;;;;;;20.00;3.87;;;5.90;99.90;;;;;;5024649;28;20313;-78
2023/02/25 01:18:40;;;;;;;22.27;5.37;;;5.90;99.90;;;;;;5025551;28;20213;-79
2023/02/25 01:21:16;;;;;;;16.80;3.53;;;5.90;99.90;;;;;;5024552;28;20203;-80
2023/02/25 01:23:44;;;;;;;15.23;3.37;;;6.00;99.90;;;;;;5023927;28;20209;-80
2023/02/25 01:26:11;;;;;;;19.30;3.20;;;6.00;99.90;;;;;;5022292;28;20211;-79
2023/02/25 01:28:37;;;;;;;15.50;3.33;;;6.10;99.90;;;;;;5023869;28;20201;-81
2023/02/25 01:31:07;;;;;;;19.90;3.63;;;6.10;99.90;;;;;;5023756;28;20194;-80
2023/02/25 01:33:37;;;;;;;15.57;3.30;;;6.10;99.90;;;;;;5031968;28;20209;-81
2023/02/25 01:36:05;;;;;;;12.50;3.07;;;6.20;99.90;;;;;;5044608;28;20305;-78
2023/02/25 01:38:33;;;;;;;18.27;3.83;;;6.10;99.90;;;;;;5044738;28;20226;-79
2023/02/25 01:41:01;;;;;;;14.77;4.63;;;6.20;99.90;;;;;;5044366;28;20206;-80
2023/02/25 01:43:29;;;;;;;17.87;4.20;;;6.20;99.90;;;;;;5044047;28;20233;-80
2023/02/25 01:45:56;;;;;;;18.07;3.93;;;6.20;99.90;;;;;;5043830;28;20202;-79
2023/02/25 01:48:27;;;;;;;20.67;3.77;;;6.20;99.90;;;;;;5043736;28;20205;-81
2023/02/25 01:51:01;;;;;;;18.40;3.80;;;6.20;99.90;;;;;;5044830;28;20479;-80
2023/02/25 01:53:33;;;;;;;24.83;4.57;;;6.20;99.90;;;;;;5032728;28;20545;-80
2023/02/25 01:56:02;;;;;;;19.97;4.33;;;6.30;99.90;;;;;;5024812;28;20203;-81
2023/02/25 01:58:29;;;;;;;16.90;3.43;;;6.30;99.90;;;;;;5024633;28;20357;-81
2023/02/25 02:00:56;;;;;;;19.07;4.00;;;6.30;99.90;;;;;;5024847;28;20607;-81
2023/02/25 02:03:26;;;;;;;21.50;3.33;;;6.30;99.90;;;;;;5024775;28;20198;-81
2023/02/25 02:06:03;;;;;;;22.87;3.90;;;6.30;99.90;;;;;;5024085;28;20213;-80
2023/02/25 02:08:31;;;;;;;21.10;4.73;;;6.30;99.90;;;;;;5024808;28;20224;-80
2023/02/25 02:11:00;;;;;;;20.30;4.53;;;6.30;99.90;;;;;;5023154;28;20861;-81
2023/02/25 02:13:30;;;;;;;20.53;4.17;;;6.40;99.90;;;;;;5023818;28;20260;-83
2023/02/25 02:16:13;;;;;;;20.67;4.60;;;6.40;99.90;;;;;;5024928;28;20202;-79
2023/02/25 02:18:46;;;;;;;14.80;3.27;;;6.20;99.90;;;;;;5025260;28;20222;-82
2023/02/25 02:21:29;;;;;;;16.17;3.47;;;6.20;99.90;;;;;;5024749;28;20492;-79
2023/02/25 02:24:33;;;;;;;13.53;3.63;;;6.10;99.90;;;;;;5024957;28;20218;-81
2023/02/25 02:27:03;;;;;;;14.23;3.80;;;6.00;99.90;;;;;;5025419;28;20488;-82
2023/02/25 02:30:12;;;;;;;16.40;2.73;;;5.90;99.90;;;;;;5025828;28;20317;-82
2023/02/25 02:32:47;;;;;;;18.57;3.43;;;5.90;99.90;;;;;;4986384;28;20202;-81
2023/02/25 02:35:20;;;;;;;15.93;3.47;;;5.90;99.90;;;;;;5024412;28;20322;-82
2023/02/25 02:37:57;;;;;;;16.80;3.77;;;5.90;99.90;;;;;;5024090;28;20914;-82
2023/02/25 02:40:36;;;;;;;16.60;3.70;;;5.90;99.90;;;;;;5024157;28;20194;-81
2023/02/25 02:43:15;;;;;;;14.20;3.77;;;5.90;99.90;;;;;;5024067;28;20329;-80
2023/02/25 02:45:48;;;;;;;16.30;3.40;;;6.00;99.90;;;;;;5024701;28;20764;-80
2023/02/25 02:48:20;;;;;;;23.07;3.60;;;6.00;99.90;;;;;;5023710;28;20186;-79
2023/02/25 02:50:51;;;;;;;19.80;3.87;;;6.00;99.90;;;;;;5023232;28;20979;-82
2023/02/25 02:53:25;;;;;;;16.80;4.27;;;6.10;99.90;;;;;;5022806;28;20214;-81
2023/02/25 02:55:55;;;;;;;11.40;3.23;;;6.10;99.90;;;;;;5023858;28;20194;-79
2023/02/25 02:58:27;;;;;;;14.53;3.13;;;6.20;80.10;;;;;;5023503;28;20250;-81
2023/02/25 03:01:01;;;;;;;13.17;2.00;;;6.20;21.90;;;;;;5021142;28;20530;-80
2023/02/25 03:03:36;;;;;;;7.57;2.00;;;6.20;1.00;;;;;;5023369;28;20199;-81
2023/02/25 03:06:05;;;;;;;8.37;2.10;;;6.20;1.00;;;;;;5022538;28;20217;-80
2023/02/25 03:08:36;;;;;;;9.87;2.57;;;6.20;1.00;;;;;;5022363;28;20300;-79
2023/02/25 03:11:05;;;;;;;10.30;3.30;;;6.20;1.00;;;;;;5022486;28;20213;-81
2023/02/25 03:13:32;;;;;;;12.90;2.53;;;6.20;1.00;;;;;;5020678;28;20199;-79
2023/02/25 03:16:00;;;;;;;14.17;3.07;;;6.20;1.00;;;;;;5020604;28;20599;-80
2023/02/25 03:18:34;;;;;;;8.77;2.50;;;6.10;1.00;;;;;;5021830;28;20664;-79
2023/02/25 03:21:05;;;;;;;13.77;3.33;;;6.10;1.00;;;;;;5022601;28;20194;-81
2023/02/25 03:23:37;;;;;;;14.83;2.63;;;6.10;1.00;;;;;;5022215;28;20194;-80
2023/02/25 03:26:11;;;;;;;13.90;2.57;;;6.10;1.00;;;;;;5022640;28;20269;-80
2023/02/25 03:28:39;;;;;;;17.90;3.53;;;6.20;1.00;;;;;;5021247;28;20186;-79
2023/02/25 03:31:09;;;;;;;14.70;2.70;;;6.20;1.00;;;;;;5022391;28;20850;-79
2023/02/25 03:33:46;;;;;;;15.20;2.93;;;6.20;30.00;;;;;;5024148;28;20325;-80
2023/02/25 03:36:19;;;;;;;15.10;2.50;;;6.30;43.40;;;;;;5025913;28;20337;-81
2023/02/25 03:38:50;;;;;;;13.93;3.20;;;6.20;94.70;;;;;;5026045;28;20693;-80
2023/02/25 03:41:20;;;;;;;12.67;2.07;;;6.20;99.90;;;;;;5026765;28;20205;-79
2023/02/25 03:43:52;;;;;;;6.93;1.57;;;6.10;99.90;;;;;;5026432;28;20242;-82
2023/02/25 03:46:20;;;;;;;5.90;1.57;;;5.90;99.90;;;;;;5029414;28;20690;-83
2023/02/25 03:48:50;;;;;;;4.17;1.70;;;5.80;99.90;;;;;;5030162;28;20610;-82
2023/02/25 03:51:21;;;;;;;6.17;2.00;;;5.70;99.90;;;;;;5029605;28;20278;-83
2023/02/25 03:53:49;;;;;;;15.43;1.93;;;5.60;99.90;;;;;;5028378;28;20199;-79
2023/02/25 03:56:16;;;;;;;5.30;1.50;;;5.60;99.90;;;;;;5026365;28;20210;-79
2023/02/25 03:58:44;;;;;;;7.33;1.70;;;5.60;99.90;;;;;;5026103;28;20226;-79
2023/02/25 04:01:14;;;;;;;14.47;2.93;;;5.50;99.90;;;;;;5029503;28;20298;-80
2023/02/25 04:03:41;;;;;;;11.37;3.00;;;5.60;99.90;;;;;;5037740;28;20212;-81
2023/02/25 04:06:12;;;;;;;16.27;3.37;;;5.60;99.90;;;;;;5048665;28;20198;-80
2023/02/25 04:08:39;;;;;;;13.77;2.53;;;5.60;99.90;;;;;;5045518;28;20218;-82
2023/02/25 04:11:06;;;;;;;17.97;4.97;;;5.60;99.90;;;;;;5027936;28;20596;-83
2023/02/25 04:13:33;;;;;;;11.73;2.63;;;5.70;99.90;;;;;;5029061;28;20297;-79
2023/02/25 04:16:00;;;;;;;11.03;3.27;;;5.70;99.90;;;;;;5028449;28;20224;-81
2023/02/25 04:18:27;;;;;;;18.47;3.20;;;5.70;99.90;;;;;;5027244;28;20257;-82
2023/02/25 04:20:54;;;;;;;15.53;2.63;;;5.70;99.90;;;;;;5028094;28;20615;-79
2023/02/25 04:23:23;;;;;;;17.33;4.27;;;5.70;99.90;;;;;;5027285;28;20681;-82
2023/02/25 04:25:50;;;;;;;12.70;2.77;;;5.70;99.90;;;;;;5025941;28;20198;-81
2023/02/25 04:28:17;;;;;;;16.83;3.80;;;5.60;99.90;;;;;;5036471;28;20772;-80
2023/02/25 04:30:44;;;;;;;16.80;3.70;;;5.60;99.90;;;;;;5047790;28;20220;-81
2023/02/25 04:33:11;;;;;;;16.87;3.87;;;5.60;99.90;;;;;;5045130;28;20216;-78
2023/02/25 04:35:39;;;;;;;15.93;3.77;;;5.60;99.90;;;;;;5043735;28;20697;-81
2023/02/25 04:38:06;;;;;;;31.53;4.63;;;5.60;99.90;;;;;;5026590;28;20346;-81
2023/02/25 04:40:34;;;;;;;16.67;3.60;;;5.60;99.90;;;;;;5026709;28;20207;-81
2023/02/25 04:43:01;;;;;;;12.53;3.43;;;5.60;99.90;;;;;;5026923;28;20238;-79
2023/02/25 04:45:28;;;;;;;14.70;3.10;;;5.70;99.90;;;;;;5024552;28;20768;-80
2023/02/25 04:47:56;;;;;;;17.77;3.20;;;5.70;99.90;;;;;;5025197;28;20306;-81
2023/02/25 04:50:24;;;;;;;15.07;2.97;;;5.70;99.90;;;;;;5026486;28;20213;-79
2023/02/25 04:52:51;;;;;;;14.40;2.53;;;5.70;99.90;;;;;;5024234;28;20360;-79
2023/02/25 04:55:18;;;;;;;19.60;4.73;;;5.70;99.90;;;;;;5022926;28;20213;-80
2023/02/25 04:57:47;;;;;;;16.30;3.43;;;5.70;99.90;;;;;;5023011;28;20253;-80
2023/02/25 05:00:18;;;;;;;20.53;3.20;;;5.70;99.90;;;;;;5023156;28;20208;-78
2023/02/25 05:02:46;;;;;;;18.27;3.50;;;5.70;99.90;;;;;;5023819;28;20607;-78
2023/02/25 05:05:13;;;;;;;18.33;3.20;;;5.70;99.90;;;;;;5023606;28;20214;-79
2023/02/25 05:07:40;;;;;;;15.47;3.20;;;5.70;99.90;;;;;;5023759;28;20991;-77
2023/02/25 05:10:08;;;;;;;23.13;3.60;;;5.70;99.90;;;;;;5023524;28;20209;-78
2023/02/25 05:12:35;;;;;;;20.57;3.10;;;5.70;99.90;;;;;;5023369;28;20199;-78
2023/02/25 05:15:07;;;;;;;17.23;4.10;;;5.80;99.90;;;;;;5022915;28;20194;-79
2023/02/25 05:17:34;;;;;;;25.80;4.00;;;5.80;99.90;;;;;;5023201;28;20248;-79
2023/02/25 05:20:01;;;;;;;20.43;3.93;;;5.90;99.90;;;;;;5023182;28;20230;-77
2023/02/25 05:22:28;;;;;;;28.03;3.60;;;5.90;99.90;;;;;;5022596;28;20321;-79
2023/02/25 05:24:55;;;;;;;19.37;4.13;;;5.90;99.90;;;;;;5023076;28;20508;-79
2023/02/25 05:27:22;;;;;;;16.30;4.43;;;5.90;99.90;;;;;;5023394;28;20205;-78
2023/02/25 05:29:50;;;;;;;20.03;3.50;;;5.90;99.90;;;;;;5022520;28;20329;-78
2023/02/25 05:32:18;;;;;;;12.87;3.33;;;5.90;99.90;;;;;;5022597;28;20294;-78
2023/02/25 05:34:45;;;;;;;20.63;4.90;;;5.90;99.90;;;;;;5022883;28;20199;-81
2023/02/25 05:37:12;;;;;;;19.67;3.40;;;5.80;99.90;;;;;;5022150;28;20539;-78
2023/02/25 05:39:39;;;;;;;13.23;2.57;;;5.70;99.90;;;;;;5022551;28;20237;-78
2023/02/25 05:42:06;;;;;;;13.00;3.33;;;5.70;92.30;;;;;;5022066;28;20209;-78
2023/02/25 05:44:33;;;;;;;18.93;3.83;;;5.70;62.60;;;;;;5022930;28;20300;-78
2023/02/25 05:46:59;;;;;;;23.43;3.47;;;5.70;87.70;;;;;;5022367;28;20317;-80
2023/02/25 05:49:28;;;;;;;15.63;3.50;;;5.70;73.70;;;;;;5022097;28;21020;-79
2023/02/25 05:51:55;;;;;;;12.27;3.43;;;5.60;94.80;;;;;;5022683;28;20229;-81
2023/02/25 05:54:22;;;;;;;15.43;4.30;;;5.60;98.10;;;;;;5022005;28;20195;-78
2023/02/25 05:56:51;;;;;;;16.40;3.17;;;5.70;99.90;;;;;;5022091;28;20630;-79
2023/02/25 05:59:18;;;;;;;18.77;3.40;;;5.60;99.90;;;;;;5022617;28;20226;-81
2023/02/25 06:01:44;;;;;;;14.83;2.73;;;5.60;99.90;;;;;;5022104;28;20629;-80
2023/02/25 06:04:12;;;;;;;12.20;3.30;;;5.70;99.90;;;;;;5021422;28;20210;-79
2023/02/25 06:06:40;;;;;;;17.30;2.70;;;5.70;99.90;;;;;;5022140;28;20773;-79
2023/02/25 06:09:08;;;;;;;10.90;2.13;;;5.70;99.90;;;;;;5023187;28;20250;-80
2023/02/25 06:11:35;;;;;;;7.80;1.63;;;5.70;99.90;;;;;;5024146;28;20291;-83
2023/02/25 06:14:02;;;;;;;9.60;2.17;;;5.50;99.90;;;;;;5022830;28;20568;-79
2023/02/25 06:16:30;;;;;;;12.77;2.33;;;5.40;99.90;;;;;;5021778;28;20620;-80
2023/02/25 06:18:59;;;;;;;8.37;2.60;;;5.30;99.90;;;;;;5022001;28;20229;-83
2023/02/25 06:21:27;;;;;;;12.10;2.77;;;5.20;99.90;;;;;;5024532;28;20203;-80
2023/02/25 06:23:55;;;;;;;9.80;2.73;;;5.20;99.90;;;;;;5023392;28;20210;-79
2023/02/25 06:26:22;;;;;;;7.87;2.13;;;5.20;99.90;;;;;;5022539;28;20229;-80
2023/02/25 06:28:49;;;;;;;14.63;3.40;;;5.10;99.90;;;;;;5024083;28;20206;-79
2023/02/25 06:31:17;;;;;;;24.10;4.13;;;5.10;99.90;;;;;;5022223;28;20686;-78
2023/02/25 06:33:45;;;;;;;20.97;3.23;;;5.10;99.90;;;;;;5022502;28;20912;-80
2023/02/25 06:36:14;;;;;;;13.97;3.70;;;5.20;99.90;;;;;;5022111;28;20206;-79
2023/02/25 06:38:42;;;;;;;17.43;4.10;;;5.20;99.90;;;;;;5022202;28;20311;-82
2023/02/25 06:41:14;;;;;;;14.03;4.13;;;5.30;99.90;;;;;;5022264;28;20210;-80
2023/02/25 06:43:41;;;;;;;16.33;3.70;;;5.40;99.90;;;;;;5021819;28;20709;-79
2023/02/25 06:46:11;;;;;;;14.53;4.07;;;5.40;99.90;;;;;;5022249;28;20624;-80
2023/02/25 06:48:38;;;;;;;15.37;3.37;;;5.40;99.90;;;;;;5022846;28;20209;-80
2023/02/25 06:51:08;;;;;;;22.13;3.40;;;5.40;99.90;;;;;;5022248;28;20199;-80
2023/02/25 06:53:35;;;;;;;20.87;3.90;;;5.50;99.90;;;;;;5021844;28;20249;-79
2023/02/25 06:56:02;;;;;;;17.53;3.23;;;5.50;99.90;;;;;;5023620;28;20233;-79
2023/02/25 06:58:30;;;;;;;17.87;2.90;;;5.50;99.90;;;;;;5021926;28;20317;-80
2023/02/25 07:00:58;;;;;;;23.27;4.90;;;5.50;99.90;;;;;;5020736;28;20209;-80
2023/02/25 07:03:25;;;;;;;19.93;5.33;;;5.60;99.90;;;;;;5021821;28;20610;-79
2023/02/25 07:05:53;;;;;;;15.10;3.10;;;5.60;99.90;;;;;;5021991;28;20199;-77
2023/02/25 07:08:20;;;;;;;15.90;3.27;;;5.60;99.90;;;;;;5039033;28;20303;-78
2023/02/25 07:10:46;;;;;;;18.13;3.80;;;5.60;99.90;;;;;;5044437;28;20228;-78
2023/02/25 07:13:13;;;;;;;18.27;3.80;;;5.70;99.90;;;;;;5040238;28;20202;-79
2023/02/25 07:15:42;;;;;;;19.93;5.27;;;5.70;99.90;;;;;;5025933;28;20298;-78
2023/02/25 07:18:09;;;;;;;27.70;4.33;;;5.80;99.90;;;;;;5026087;28;20240;-78
2023/02/25 07:20:38;;;;;;;13.57;3.73;;;5.80;99.90;;;;;;5025600;28;20214;-79
2023/02/25 07:23:05;;;;;;;19.80;3.63;;;5.80;99.90;;;;;;5026615;28;20206;-78
2023/02/25 07:25:32;;;;;;;16.70;3.43;;;5.90;99.90;;;;;;5025289;28;20213;-79
2023/02/25 07:27:59;;;;;;;14.57;2.70;;;5.90;99.90;;;;;;5024641;28;20642;-78
2023/02/25 07:30:26;;;;;;;15.73;2.77;;;5.90;99.90;;;;;;5024397;28;20203;-79
2023/02/25 07:32:55;;;;;;;18.60;3.57;;;5.90;99.90;;;;;;5025506;28;20202;-79
2023/02/25 07:35:22;;;;;;;12.57;2.83;;;5.90;99.90;;;;;;5024695;28;20352;-80
2023/02/25 07:37:49;;;;;;;15.60;3.97;;;5.90;99.90;;;;;;5025486;28;20217;-78
2023/02/25 07:40:17;;;;;;;22.20;3.50;;;5.90;99.90;;;;;;5024465;28;20445;-79
2023/02/25 07:42:43;;;;;;;13.90;4.23;;;5.90;99.90;;;;;;5024184;28;20203;-79
2023/02/25 07:45:11;;;;;;;14.50;3.27;;;6.00;99.90;;;;;;5025026;28;20198;-80
2023/02/25 07:47:38;;;;;;;15.00;3.43;;;6.00;99.90;;;;;;5024781;28;20289;-80
2023/02/25 07:50:10;;;;;;;19.43;5.73;;;6.00;99.90;;;;;;5038305;28;20217;-80
2023/02/25 07:52:37;;;;;;;12.33;3.27;;;6.10;99.90;;;;;;5044408;28;20206;-79
2023/02/25 07:55:04;;;;;;;19.07;3.63;;;6.10;99.90;;;;;;5043254;28;20293;-78
2023/02/25 07:57:31;;;;;;;16.27;3.43;;;6.10;99.90;;;;;;5024494;28;20901;-80
2023/02/25 07:59:59;;;;;;;14.93;3.60;;;6.20;91.90;;;;;;5025063;28;20232;-79
2023/02/25 08:09:40;;;;;;;18.57;3.60;;;6.30;12.60;;;;;;4712075;29;20973;-79
2023/02/25 08:12:07;;;;;;;19.00;4.27;;;6.30;34.70;;;;;;4853188;29;20594;-80
2023/02/25 08:14:34;;;;;;;16.77;3.60;;;6.30;45.70;;;;;;4880114;29;20661;-81
2023/02/25 08:17:01;;;;;;;17.43;4.03;;;6.40;75.80;;;;;;4935612;29;20380;-79
2023/02/25 08:19:28;;;;;;;14.03;2.97;;;6.40;99.90;;;;;;4943739;28;20224;-80
2023/02/25 08:21:55;;;;;;;5.43;2.00;;;6.40;99.90;;;;;;4943045;29;20677;-80
2023/02/25 08:24:22;;;;;;;9.50;1.90;;;6.20;99.90;;;;;;4938173;29;20209;-80
2023/02/25 08:26:51;;;;;;;8.93;2.90;;;6.00;99.90;;;;;;4942993;29;20332;-78
2023/02/25 08:29:18;;;;;;;13.67;2.40;;;6.00;99.90;;;;;;4942951;29;20341;-78
2023/02/25 08:31:47;;;;;;;6.53;1.63;;;5.90;99.90;;;;;;4942497;29;20296;-80
2023/02/25 08:34:14;;;;;;;9.00;1.93;;;5.80;99.90;;;;;;4943249;29;20384;-82
2023/02/25 08:36:41;;;;;;;8.53;2.80;;;5.60;99.90;;;;;;4945147;29;20202;-81
2023/02/25 08:39:08;;;;;;;8.87;3.70;;;5.50;99.90;;;;;;4934849;29;20236;-80
2023/02/25 08:41:35;;;;;;;7.37;2.00;;;5.30;99.90;;;;;;4925147;29;20214;-80
2023/02/25 08:44:04;;;;;;;9.13;2.30;;;5.30;99.90;;;;;;4939252;28;20234;-80
2023/02/25 08:46:32;;;;;;;10.77;2.20;;;5.20;99.90;;;;;;4962342;28;20255;-79
2023/02/25 08:48:59;;;;;;;7.77;2.43;;;5.20;99.90;;;;;;4963316;28;20207;-80
2023/02/25 08:51:32;;;;;;;9.00;1.80;;;5.20;99.90;;;;;;4963934;28;21315;-81
2023/02/25 08:54:01;;;;;;;9.87;1.93;;;5.10;99.90;;;;;;4958669;28;20701;-81
2023/02/25 08:56:28;;;;;;;12.53;2.10;;;5.10;99.90;;;;;;4944968;29;20205;-79
2023/02/25 08:58:55;;;;;;;8.63;2.07;;;5.10;99.90;;;;;;4945428;28;20981;-80
2023/02/25 09:01:23;;;;;;;9.73;2.10;;;5.20;99.90;;;;;;4945497;29;20215;-79
2023/02/25 09:03:53;;;;;;;8.70;2.53;;;5.20;99.90;;;;;;4979002;28;20298;-81
2023/02/25 09:06:22;;;;;;;11.47;2.77;;;5.30;99.90;;;;;;4982845;28;20261;-81
2023/02/25 09:08:50;;;;;;;13.13;2.13;;;5.40;99.90;;;;;;4983616;28;20314;-80
2023/02/25 09:11:19;;;;;;;12.03;2.07;;;5.50;99.90;;;;;;4981396;28;20207;-79
2023/02/25 09:13:46;;;;;;;14.77;2.83;;;5.60;99.90;;;;;;4983119;28;20210;-82
2023/02/25 09:16:16;;;;;;;12.60;2.57;;;5.80;99.90;;;;;;5007439;28;20206;-82
2023/02/25 09:18:44;;;;;;;14.37;3.00;;;5.80;99.90;;;;;;5024139;28;20214;-82
2023/02/25 09:21:12;;;;;;;9.43;2.50;;;5.90;99.90;;;;;;5022539;28;20237;-82
2023/02/25 09:23:39;;;;;;;8.57;2.40;;;6.10;99.90;;;;;;5024411;28;20252;-82
2023/02/25 09:26:06;;;;;;;10.90;1.90;;;6.20;99.90;;;;;;5024575;28;20249;-82
2023/02/25 09:28:34;;;;;;;8.33;2.90;;;6.30;99.90;;;;;;5023974;28;20202;-82
2023/02/25 09:31:02;;;;;;;6.87;1.73;;;6.20;99.90;;;;;;5024672;28;20214;-81
2023/02/25 09:33:31;;;;;;;8.70;1.33;;;6.20;99.90;;;;;;5025197;28;20199;-80
2023/02/25 09:36:07;;;;;;;9.83;1.50;;;6.10;99.90;;;;;;5023836;28;20655;-82
2023/02/25 09:38:34;;;;;;;9.37;1.30;;;6.10;99.90;;;;;;5024642;28;20198;-83
2023/02/25 09:41:01;;;;;;;6.23;1.03;;;6.10;99.90;;;;;;5022112;28;20222;-79
2023/02/25 09:43:34;;;;;;;3.60;1.20;;;6.10;99.90;;;;;;5023697;28;20357;-81
2023/02/25 09:46:06;;;;;;;2.63;0.97;;;6.00;99.90;;;;;;5023896;28;20195;-79
2023/02/25 09:48:35;;;;;;;3.97;0.90;;;6.00;99.90;;;;;;5022876;28;20210;-80
2023/02/25 09:51:16;;;;;;;5.57;1.37;;;6.00;99.90;;;;;;5043022;28;20206;-80
2023/02/25 09:53:49;;;;;;;6.03;1.20;;;6.10;99.90;;;;;;5040351;28;20221;-80
2023/02/25 09:56:24;;;;;;;8.80;1.33;;;6.10;99.90;;;;;;5041294;28;20245;-79
2023/02/25 09:58:55;;;;;;;5.53;1.20;;;6.10;99.90;;;;;;5023230;28;20197;-82
2023/02/25 10:01:33;;;;;;;4.90;1.50;;;6.20;99.90;;;;;;5030442;28;20253;-79
2023/02/25 10:04:08;;;;;;;4.70;1.20;;;6.30;99.90;;;;;;5042616;28;20475;-80
2023/02/25 10:06:38;;;;;;;4.43;1.20;;;6.40;99.90;;;;;;5044280;28;20193;-82
2023/02/25 10:09:15;;;;;;;7.50;1.47;;;6.50;99.90;;;;;;5041216;28;20224;-80
2023/02/25 10:11:50;;;;;;;7.33;1.40;;;6.60;99.90;;;;;;5023974;28;20194;-80
2023/02/25 10:14:32;;;;;;;5.97;1.40;;;6.70;99.90;;;;;;5022004;28;20212;-80
2023/02/25 10:17:06;;;;;;;6.70;1.50;;;6.90;99.90;;;;;;5022517;28;20519;-79
2023/02/25 10:19:50;;;;;;;7.37;1.67;;;7.10;86.10;;;;;;5039472;28;20363;-82
2023/02/25 10:22:35;;;;;;;5.70;1.10;;;7.30;1.20;;;;;;5042451;28;20309;-79
2023/02/25 10:25:10;;;;;;;5.47;1.60;;;7.40;1.00;;;;;;5041606;28;20711;-81
2023/02/25 10:27:42;;;;;;;5.80;1.50;;;7.10;1.00;;;;;;5040901;28;20336;-79
2023/02/25 10:30:15;;;;;;;3.30;1.20;;;6.90;1.00;;;;;;5042014;28;20198;-80
2023/02/25 10:32:44;;;;;;;4.60;1.17;;;6.80;1.00;;;;;;5034492;28;20212;-81
2023/02/25 10:35:17;;;;;;;4.40;1.20;;;6.70;1.00;;;;;;5022805;28;20293;-79
2023/02/25 10:37:45;;;;;;;5.00;1.30;;;6.60;30.60;;;;;;5021589;28;20207;-79
2023/02/25 10:40:16;;;;;;;3.57;1.20;;;6.40;99.90;;;;;;5021863;28;20237;-78
2023/02/25 10:42:47;;;;;;;4.33;1.10;;;6.20;99.90;;;;;;5022850;28;20206;-81
2023/02/25 10:45:19;;;;;;;3.37;1.13;;;6.00;99.90;;;;;;5024787;28;20195;-81
2023/02/25 10:47:51;;;;;;;7.57;1.80;;;6.00;99.90;;;;;;5025952;28;20289;-80
2023/02/25 10:50:21;;;;;;;5.73;1.80;;;6.00;99.90;;;;;;5026632;28;20202;-80
2023/02/25 10:52:56;;;;;;;3.83;1.07;;;5.90;99.90;;;;;;5026806;28;20784;-81
2023/02/25 10:55:38;;;;;;;3.30;1.20;;;6.00;99.90;;;;;;5025964;28;20194;-78
2023/02/25 10:58:05;;;;;;;5.17;1.20;;;6.00;1.00;;;;;;5026231;28;20206;-79
2023/02/25 11:00:35;;;;;;;3.93;1.20;;;6.00;1.00;;;;;;5025432;28;20228;-80
2023/02/25 11:03:04;;;;;;;4.37;0.87;;;6.10;1.00;;;;;;5025519;28;20293;-80
2023/02/25 11:05:36;;;;;;;10.93;2.23;;;6.20;1.00;;;;;;5025460;28;20293;-80
2023/02/25 11:08:06;;;;;;;5.17;1.27;;;6.30;1.00;;;;;;5025958;28;20215;-80
2023/02/25 11:10:34;;;;;;;6.60;1.80;;;6.40;1.00;;;;;;5026361;28;20325;-79
2023/02/25 11:13:04;;;;;;;5.37;1.40;;;6.50;1.00;;;;;;5044315;28;20220;-79
2023/02/25 11:15:34;;;;;;;5.63;1.40;;;6.60;1.00;;;;;;5045255;28;20626;-79
2023/02/25 11:18:15;;;;;;;7.63;1.50;;;6.70;1.00;;;;;;5045103;28;20309;-80
2023/02/25 11:20:50;;;;;;;3.47;1.20;;;6.70;1.00;;;;;;5043798;28;20245;-80
2023/02/25 11:23:22;;;;;;;4.97;1.30;;;6.90;1.00;;;;;;5046399;28;20259;-81
2023/02/25 11:25:52;;;;;;;5.47;2.27;;;7.00;1.00;;;;;;5044456;28;20187;-82
2023/02/25 11:28:29;;;;;;;4.67;1.00;;;7.20;1.00;;;;;;5044317;28;20198;-81
2023/02/25 11:31:04;;;;;;;4.50;1.63;;;7.30;1.00;;;;;;5025393;28;20213;-81
2023/02/25 11:33:35;;;;;;;5.13;1.40;;;7.50;1.00;;;;;;5025164;28;20703;-79
2023/02/25 11:36:03;;;;;;;5.30;1.30;;;7.60;39.40;;;;;;5025307;28;20237;-79
2023/02/25 11:38:33;;;;;;;7.77;1.97;;;7.80;1.00;;;;;;5025632;28;20199;-81
2023/02/25 11:41:01;;;;;;;5.57;1.30;;;7.90;1.00;;;;;;5024780;28;20211;-78
2023/02/25 11:43:36;;;;;;;4.40;1.10;;;8.00;1.00;;;;;;5039067;28;20248;-81
2023/02/25 11:46:07;;;;;;;7.43;1.20;;;7.90;1.00;;;;;;5038950;28;20219;-80
2023/02/25 11:48:47;;;;;;;11.53;2.23;;;7.90;1.00;;;;;;5027550;28;20234;-79
2023/02/25 11:51:25;;;;;;;8.73;1.33;;;7.90;1.00;;;;;;5033932;28;20281;-79
2023/02/25 11:54:03;;;;;;;5.53;1.73;;;8.00;44.40;;;;;;5029300;28;20210;-79
2023/02/25 11:56:34;;;;;;;9.73;1.70;;;8.10;1.00;;;;;;5045007;28;20306;-80
2023/02/25 11:59:16;;;;;;;7.00;1.70;;;8.00;1.00;;;;;;5038806;28;20237;-79
2023/02/25 12:02:02;;;;;;;6.30;1.30;;;8.00;99.90;;;;;;5037971;28;20214;-81
2023/02/25 12:04:49;;;;;;;4.87;1.73;;;8.10;25.30;;;;;;5026768;28;20234;-80
2023/02/25 12:08:01;;;;;;;6.13;1.70;;;8.10;1.00;;;;;;5045269;28;20301;-80
2023/02/25 12:11:03;;;;;;;4.93;1.63;;;8.00;99.90;;;;;;4989096;28;20206;-78
2023/02/25 12:13:58;;;;;;;11.13;2.57;;;8.00;1.00;;;;;;4995559;28;20304;-78
2023/02/25 12:17:15;;;;;;;5.43;1.53;;;8.00;99.90;;;;;;5033221;28;20509;-77
2023/02/25 12:20:13;;;;;;;9.27;2.10;;;7.90;99.90;;;;;;5030386;28;20210;-79
2023/02/25 12:23:01;;;;;;;6.00;1.63;;;7.80;99.90;;;;;;5024656;28;20203;-79
2023/02/25 12:25:36;;;;;;;5.50;1.40;;;7.80;1.00;;;;;;5028619;28;20221;-80
2023/02/25 12:28:31;;;;;;;9.73;1.40;;;7.90;1.00;;;;;;5044635;28;20201;-77
2023/02/25 12:31:15;;;;;;;3.70;1.07;;;8.10;1.00;;;;;;5039154;28;20212;-77
2023/02/25 12:34:05;;;;;;;4.27;1.40;;;8.30;1.00;;;;;;5044151;28;20194;-78
2023/02/25 12:36:48;;;;;;;3.90;0.90;;;8.30;99.90;;;;;;5029083;28;20194;-80
2023/02/25 12:39:43;;;;;;;5.13;1.30;;;7.90;1.00;;;;;;5022834;28;20202;-79
2023/02/25 12:42:29;;;;;;;4.43;1.50;;;7.80;99.90;;;;;;5023224;28;20544;-81
2023/02/25 12:45:17;;;;;;;2.43;1.20;;;7.90;99.90;;;;;;5024003;28;20661;-79
2023/02/25 12:47:58;;;;;;;4.97;1.27;;;8.00;98.50;;;;;;5024034;28;20207;-80
2023/02/25 12:51:00;;;;;;;8.03;1.50;;;8.10;1.00;;;;;;5024519;28;20202;-78
2023/02/25 12:53:44;;;;;;;11.30;1.67;;;8.20;90.10;;;;;;4977550;28;20244;-79
2023/02/25 12:56:34;;;;;;;5.27;1.70;;;8.20;1.00;;;;;;5024491;28;20198;-79
2023/02/25 12:59:23;;;;;;;6.00;1.60;;;8.20;1.00;;;;;;5024117;28;20229;-76
2023/02/25 13:02:16;;;;;;;4.70;1.63;;;8.30;31.70;;;;;;5023345;28;20586;-78
2023/02/25 13:04:59;;;;;;;4.37;1.50;;;8.30;99.90;;;;;;5023796;28;20195;-78
2023/02/25 13:07:48;;;;;;;8.83;2.10;;;8.30;1.00;;;;;;5023197;28;20217;-78
2023/02/25 13:10:34;;;;;;;3.93;1.30;;;8.30;1.00;;;;;;5023417;28;20205;-78
2023/02/25 13:13:19;;;;;;;10.07;1.83;;;8.20;1.00;;;;;;5022609;28;20473;-79
2023/02/25 13:15:59;;;;;;;6.70;1.43;;;7.90;13.00;;;;;;5022842;28;20214;-79
2023/02/25 13:18:41;;;;;;;5.83;1.40;;;7.60;99.90;;;;;;5030565;28;20857;-80
2023/02/25 13:21:32;;;;;;;8.70;1.70;;;7.60;99.90;;;;;;5035000;28;20734;-77
2023/02/25 13:24:17;;;;;;;3.13;1.20;;;7.70;1.00;;;;;;5036996;28;20243;-79